createdAt,value
2022-11-10T00:01:09.341Z,101837.34
2022-11-10T00:06:20.975Z,101787.91
2022-11-10T00:11:34.514Z,101845.50
2022-11-10T00:17:05.556Z,101850.38
2022-11-10T00:22:17.428Z,101750.84
2022-11-10T00:27:30.905Z,101796.28
2022-11-10T00:32:42.877Z,101813.94
2022-11-10T00:38:00.403Z,101864.66
2022-11-10T00:43:13.780Z,101655.13
2022-11-10T00:48:26.826Z,101814.59
2022-11-10T00:53:39.623Z,101781.72
2022-11-10T00:58:52.816Z,101716.72
2022-11-10T01:04:05.478Z,101816.91
2022-11-10T01:09:20.071Z,101766.47
2022-11-10T01:14:33.543Z,101857.84
2022-11-10T01:19:45.389Z,101808.09
2022-11-10T01:24:56.924Z,101824.31
2022-11-10T01:30:11.563Z,101808.53
2022-11-10T01:35:24.550Z,101793.22
2022-11-10T01:40:38.510Z,101758.88
2022-11-10T01:45:53.710Z,101831.53
2022-11-10T01:51:13.352Z,101840.09
2022-11-10T01:56:27.062Z,101841.34
2022-11-10T02:01:40.816Z,101806.19
2022-11-10T02:06:53.518Z,101837.78
2022-11-10T02:12:06.816Z,101847.06
2022-11-10T02:17:20.192Z,101803.69
2022-11-10T02:22:33.445Z,101800.81
2022-11-10T02:27:45.276Z,101816.63
2022-11-10T02:32:57.240Z,101851.53
2022-11-10T02:38:11.029Z,101819.84
2022-11-10T02:43:23.402Z,101819.25
2022-11-10T02:48:35.286Z,101873.72
2022-11-10T02:53:50.233Z,101866.16
2022-11-10T02:59:02.357Z,101866.38
2022-11-10T03:04:14.485Z,101812.22
2022-11-10T03:09:27.898Z,101851.97
2022-11-10T03:14:39.965Z,101831.88
2022-11-10T03:19:51.594Z,101724.66
2022-11-10T03:25:05.804Z,101887.06
2022-11-10T03:30:17.700Z,101757.91
2022-11-10T03:35:29.835Z,101891.97
2022-11-10T03:41:17.100Z,101854.22
2022-11-10T03:46:18.172Z,101838.97
2022-11-10T03:51:30.065Z,101886.53
2022-11-10T03:56:43.595Z,101844.69
2022-11-10T04:01:55.226Z,101851.63
2022-11-10T04:07:24.091Z,101892.44
2022-11-10T04:12:54.392Z,101891.75
2022-11-10T04:18:19.988Z,101858.34
2022-11-10T04:23:36.274Z,101897.41
2022-11-10T04:28:51.350Z,101872.38
2022-11-10T04:34:03.184Z,101783.97
2022-11-10T04:39:15.016Z,101915.34
2022-11-10T04:44:28.197Z,101767.13
2022-11-10T04:49:39.760Z,101805.34
2022-11-10T04:54:51.636Z,101831.72
2022-11-10T05:00:07.536Z,101922.41
2022-11-10T05:05:19.709Z,101917.31
2022-11-10T05:10:31.666Z,101834.38
2022-11-10T05:15:44.873Z,101757.41
2022-11-10T05:21:04.823Z,101834.31
2022-11-10T05:26:22.403Z,101942.81
2022-11-10T05:31:36.310Z,101941.06
2022-11-10T05:36:48.352Z,101951.41
2022-11-10T05:42:03.416Z,101937.09
2022-11-10T05:47:17.583Z,101928.81
2022-11-10T05:52:29.592Z,101969.84
2022-11-10T05:57:44.295Z,101965.97
2022-11-10T06:03:07.690Z,101942.28
2022-11-10T06:08:19.504Z,101993.34
2022-11-10T06:13:31.142Z,101882.44
2022-11-10T06:18:44.061Z,101986.63
2022-11-10T06:23:56.127Z,101998.28
2022-11-10T06:29:08.152Z,101958.31
2022-11-10T06:34:21.745Z,102000.50
2022-11-10T06:39:33.658Z,101970.66
2022-11-10T06:44:45.530Z,101945.66
2022-11-10T06:49:58.632Z,102037.81
2022-11-10T06:55:11.138Z,102032.16
2022-11-10T07:00:23.422Z,101979.75
2022-11-10T07:05:38.212Z,101945.94
2022-11-10T07:10:53.529Z,101988.53
2022-11-10T07:16:05.884Z,102028.56
2022-11-10T07:21:19.104Z,102032.91
2022-11-10T07:26:30.647Z,101988.16
2022-11-10T07:31:42.352Z,101972.09
2022-11-10T07:36:55.549Z,102042.47
2022-11-10T07:42:07.177Z,102040.56
2022-11-10T07:47:18.615Z,102023.53
2022-11-10T07:52:31.974Z,102044.53
2022-11-10T07:57:43.701Z,102029.88
2022-11-10T08:02:55.647Z,102035.47
2022-11-10T08:08:09.193Z,102009.31
2022-11-10T08:13:21.609Z,102040.56
2022-11-10T08:18:35.478Z,102034.63
2022-11-10T08:23:48.509Z,102008.13
2022-11-10T08:29:00.338Z,102040.03
2022-11-10T08:34:13.008Z,102055.88
2022-11-10T08:39:38.642Z,102017.47
2022-11-10T08:44:51.061Z,102052.81
2022-11-10T08:50:02.338Z,102011.19
2022-11-10T08:55:15.069Z,102060.28
2022-11-10T09:00:26.746Z,102010.81
2022-11-10T09:05:38.323Z,101966.88
2022-11-10T09:10:52.280Z,102050.09
2022-11-10T09:16:04.524Z,102028.09
2022-11-10T09:21:16.217Z,102039.22
2022-11-10T09:26:29.179Z,102041.22
2022-11-10T09:31:40.912Z,101993.88
2022-11-10T09:36:53.388Z,101918.56
2022-11-10T09:42:08.239Z,102047.91
2022-11-10T09:47:55.622Z,101998.94
2022-11-10T09:53:01.584Z,102041.16
2022-11-10T09:58:16.418Z,102009.34
2022-11-10T10:03:32.460Z,102017.44
2022-11-10T10:08:56.909Z,102035.28
2022-11-10T10:14:19.536Z,102034.44
2022-11-10T10:19:42.075Z,101937.47
2022-11-10T10:24:58.097Z,101825.66
2022-11-10T10:30:16.743Z,101985.97
2022-11-10T10:35:29.609Z,101991.09
2022-11-10T10:40:44.436Z,102009.50
2022-11-10T10:46:16.940Z,102007.88
2022-11-10T10:51:30.793Z,101993.44
2022-11-10T10:56:42.765Z,101962.72
2022-11-10T11:01:56.862Z,101995.25
2022-11-10T11:07:22.580Z,101987.16
2022-11-10T11:12:34.903Z,101964.94
2022-11-10T11:17:55.508Z,101966.81
2022-11-10T11:23:24.990Z,101947.31
2022-11-10T11:28:44.196Z,101966.69
2022-11-10T11:34:05.884Z,101963.78
2022-11-10T11:39:28.357Z,101976.59
2022-11-10T11:44:52.040Z,101977.22
2022-11-10T11:50:17.728Z,101842.78
2022-11-10T11:55:55.087Z,101982.56
2022-11-10T12:01:24.843Z,101987.94
2022-11-10T12:06:49.573Z,101950.69
2022-11-10T12:12:25.412Z,101937.03
2022-11-10T12:17:48.939Z,101966.78
2022-11-10T12:23:09.953Z,101941.72
2022-11-10T12:28:27.339Z,101985.19
2022-11-10T12:33:43.981Z,101980.50
2022-11-10T12:39:04.757Z,101985.66
2022-11-10T12:44:33.900Z,101981.13
2022-11-10T12:49:58.996Z,101977.28
2022-11-10T12:55:15.878Z,101985.19
2022-11-10T13:00:30.240Z,101984.81
2022-11-10T13:05:45.389Z,101821.41
2022-11-10T13:11:03.946Z,101986.16
2022-11-10T13:16:49.659Z,101951.91
2022-11-10T13:22:10.067Z,101965.34
2022-11-10T13:27:53.681Z,101985.69
2022-11-10T13:33:39.638Z,101995.97
2022-11-10T13:38:51.294Z,101992.31
2022-11-10T13:44:04.861Z,101990.25
2022-11-10T13:49:40.332Z,101972.75
2022-11-10T13:55:16.316Z,101974.09
2022-11-10T14:00:31.907Z,101990.25
2022-11-10T14:06:06.401Z,102002.88
2022-11-10T14:11:26.769Z,102002.03
2022-11-10T14:16:44.869Z,101987.66
2022-11-10T14:22:04.352Z,101959.44
2022-11-10T14:27:22.443Z,101974.53
2022-11-10T14:32:35.353Z,102005.66
2022-11-10T14:37:49.610Z,102001.75
2022-11-10T14:43:01.378Z,102009.28
2022-11-10T14:48:20.303Z,101982.66
2022-11-10T14:53:35.596Z,101962.00
2022-11-10T14:58:49.128Z,102023.97
2022-11-10T15:04:05.057Z,102020.00
2022-11-10T15:09:22.667Z,102012.66
2022-11-10T15:14:40.738Z,102001.63
2022-11-10T15:19:56.973Z,102031.09
2022-11-10T15:25:16.290Z,102031.41
2022-11-10T15:30:28.201Z,102017.56
2022-11-10T15:35:41.255Z,102034.38
2022-11-10T15:40:54.761Z,102042.81
2022-11-10T15:46:17.757Z,101987.66
2022-11-10T15:51:33.078Z,102057.34
2022-11-10T15:56:45.069Z,102069.03
2022-11-10T16:01:57.048Z,102028.66
2022-11-10T16:07:10.988Z,102062.97
2022-11-10T16:12:24.445Z,102042.69
2022-11-10T16:17:36.636Z,102072.28
2022-11-10T16:22:51.291Z,102083.25
2022-11-10T16:28:08.397Z,102036.59
2022-11-10T16:33:21.892Z,102089.19
2022-11-10T16:38:35.205Z,102089.53
2022-11-10T16:43:46.828Z,102097.13
2022-11-10T16:49:02.045Z,102068.78
2022-11-10T16:54:15.471Z,102072.59
2022-11-10T16:59:27.034Z,102034.41
2022-11-10T17:04:38.710Z,102066.59
2022-11-10T17:09:51.908Z,102070.38
2022-11-10T17:15:03.849Z,102103.09
2022-11-10T17:20:20.921Z,102113.25
2022-11-10T17:25:36.740Z,102087.78
2022-11-10T17:30:48.759Z,102072.19
2022-11-10T17:36:02.413Z,102094.53
2022-11-10T17:41:18.008Z,102082.41
2022-11-10T17:46:29.822Z,102091.59
2022-11-10T17:51:41.938Z,102020.88
2022-11-10T17:56:54.994Z,102088.91
2022-11-10T18:02:07.876Z,102098.56
2022-11-10T18:07:22.226Z,102089.03
2022-11-10T18:12:35.645Z,102088.88
2022-11-10T18:17:47.432Z,102118.09
2022-11-10T18:23:00.756Z,102098.59
2022-11-10T18:28:25.367Z,102125.56
2022-11-10T18:33:38.286Z,102144.13
2022-11-10T18:38:52.104Z,102132.44
2022-11-10T18:44:14.629Z,102119.22
2022-11-10T18:49:26.860Z,102124.19
2022-11-10T18:54:38.618Z,102161.66
2022-11-10T18:59:54.012Z,102138.53
2022-11-10T19:05:06.463Z,102174.47
2022-11-10T19:10:20.520Z,102168.78
2022-11-10T19:15:41.602Z,102163.34
2022-11-10T19:20:53.706Z,102180.47
2022-11-10T19:26:07.805Z,102120.88
2022-11-10T19:31:24.763Z,102193.16
2022-11-10T19:36:37.018Z,102188.00
2022-11-10T19:41:48.897Z,102195.09
2022-11-10T19:47:02.447Z,102189.28
2022-11-10T19:52:18.050Z,102109.19
2022-11-10T19:57:30.056Z,102202.63
2022-11-10T20:02:45.736Z,102195.22
2022-11-10T20:08:12.852Z,102186.06
2022-11-10T20:13:24.965Z,102145.41
2022-11-10T20:18:40.704Z,101945.47
2022-11-10T20:23:56.361Z,102096.97
2022-11-10T20:29:08.458Z,102160.28
2022-11-10T20:34:21.559Z,102218.22
2022-11-10T20:39:33.130Z,102216.63
2022-11-10T20:44:45.221Z,102190.66
2022-11-10T20:49:58.214Z,102064.75
2022-11-10T20:55:10.091Z,102179.25
2022-11-10T21:00:22.297Z,102183.03
2022-11-10T21:05:35.498Z,102231.63
2022-11-10T21:10:51.938Z,102231.16
2022-11-10T21:16:06.225Z,102236.50
2022-11-10T21:21:34.116Z,102235.81
2022-11-10T21:26:46.237Z,102020.75
2022-11-10T21:31:58.348Z,102242.91
2022-11-10T21:37:11.800Z,102173.34
2022-11-10T21:42:23.961Z,102234.28
2022-11-10T21:47:39.122Z,102244.69
2022-11-10T21:52:56.802Z,102194.94
2022-11-10T21:58:22.902Z,101971.28
2022-11-10T22:03:36.196Z,102116.59
2022-11-10T22:08:52.745Z,102239.69
2022-11-10T22:14:29.628Z,102260.13
2022-11-10T22:19:41.820Z,102138.91
2022-11-10T22:24:55.355Z,102100.97
2022-11-10T22:30:07.910Z,102152.16
2022-11-10T22:35:33.133Z,102270.28
2022-11-10T22:41:03.726Z,102121.97
2022-11-10T22:46:15.746Z,102202.88
2022-11-10T22:51:30.830Z,102277.72
2022-11-10T22:56:44.813Z,102218.34
2022-11-10T23:01:57.821Z,102229.38
2022-11-10T23:07:23.417Z,102286.28
2022-11-10T23:12:36.353Z,102185.38
2022-11-10T23:17:48.112Z,102174.22
2022-11-10T23:23:01.612Z,102213.44
2022-11-10T23:28:15.064Z,102296.66
2022-11-10T23:33:32.252Z,102271.38
2022-11-10T23:38:45.698Z,102236.63
2022-11-10T23:43:59.825Z,102155.16
2022-11-10T23:49:12.027Z,102271.44
2022-11-10T23:54:24.107Z,102295.97
2022-11-10T23:59:39.715Z,102232.16
